createdAt,value
2022-08-22T00:03:10.013Z,176.59
2022-08-22T00:08:20.708Z,178.48
2022-08-22T00:14:01.390Z,179.43
2022-08-22T00:19:25.018Z,180.80
2022-08-22T00:24:56.916Z,183.58
2022-08-22T00:30:29.041Z,184.60
2022-08-22T00:36:00.738Z,184.79
2022-08-22T00:41:32.768Z,185.62
2022-08-22T00:47:05.111Z,187.32
2022-08-22T00:52:37.446Z,188.18
2022-08-22T00:58:09.446Z,189.04
2022-08-22T01:03:41.111Z,191.36
2022-08-22T01:09:13.080Z,191.58
2022-08-22T01:14:44.814Z,190.36
2022-08-22T01:20:16.696Z,190.69
2022-08-22T01:25:48.462Z,191.47
2022-08-22T01:31:20.527Z,192.15
2022-08-22T01:36:52.552Z,192.03
2022-08-22T01:42:24.624Z,191.70
2022-08-22T01:47:56.518Z,192.82
2022-08-22T01:53:28.657Z,196.40
2022-08-22T01:59:01.644Z,198.66
2022-08-22T02:04:32.447Z,199.87
2022-08-22T02:10:04.347Z,199.38
2022-08-22T02:15:36.092Z,197.46
2022-08-22T02:21:08.094Z,195.35
2022-08-22T02:26:40.158Z,194.77
2022-08-22T02:32:12.191Z,194.77
2022-08-22T02:37:44.020Z,193.05
2022-08-22T02:43:15.982Z,193.05
2022-08-22T02:48:48.282Z,192.03
2022-08-22T02:54:20.081Z,193.50
2022-08-22T02:59:52.131Z,191.03
2022-08-22T03:05:23.855Z,192.93
2022-08-22T03:10:55.763Z,196.87
2022-08-22T03:16:27.338Z,196.52
2022-08-22T03:21:59.117Z,195.46
2022-08-22T03:27:33.238Z,201.34
2022-08-22T03:33:03.457Z,206.54
2022-08-22T03:38:35.847Z,208.24
2022-08-22T03:44:07.891Z,205.89
2022-08-22T03:49:39.849Z,204.61
2022-08-22T03:55:12.209Z,201.96
2022-08-22T04:00:44.413Z,198.66
2022-08-22T04:06:16.557Z,195.46
2022-08-22T04:11:48.844Z,193.62
2022-08-22T04:17:20.821Z,194.19
2022-08-22T04:22:52.917Z,193.50
2022-08-22T04:28:24.710Z,192.60
2022-08-22T04:33:56.509Z,194.19
2022-08-22T04:39:28.401Z,193.73
2022-08-22T04:45:00.861Z,196.63
2022-08-22T04:50:32.860Z,200.73
2022-08-22T05:01:36.817Z,205.50
2022-08-22T05:07:08.592Z,206.15
2022-08-22T05:12:40.959Z,202.58
2022-08-22T05:18:12.941Z,198.18
2022-08-22T05:23:44.524Z,196.05
2022-08-22T05:29:16.649Z,193.05
2022-08-22T05:40:21.349Z,191.14
2022-08-22T05:45:53.344Z,184.89
2022-08-22T05:51:25.462Z,181.19
2022-08-22T05:56:57.793Z,176.40
2022-08-22T06:02:29.952Z,168.56
2022-08-22T06:08:02.064Z,163.12
2022-08-22T06:13:34.129Z,155.38
2022-08-22T06:19:19.254Z,148.46
2022-08-22T06:24:38.501Z,142.75
2022-08-22T06:30:10.131Z,137.35
2022-08-22T06:35:41.965Z,136.45
2022-08-22T06:41:13.697Z,133.50
2022-08-22T06:46:47.944Z,130.37
2022-08-22T06:52:19.615Z,126.71
2022-08-22T06:57:51.516Z,124.44
2022-08-22T07:03:23.473Z,123.61
2022-08-22T07:08:55.568Z,122.25
2022-08-22T07:14:27.376Z,121.36
2022-08-22T07:19:59.226Z,120.31
2022-08-22T07:31:02.946Z,121.99
2022-08-22T07:36:34.613Z,121.72
2022-08-22T07:47:38.130Z,121.45
2022-08-22T07:58:41.812Z,123.79
2022-08-22T08:04:13.818Z,124.72
2022-08-22T08:09:45.596Z,124.91
2022-08-22T08:15:17.086Z,122.61
2022-08-22T08:20:48.804Z,123.34
2022-08-22T08:26:20.726Z,122.61
2022-08-22T08:31:52.636Z,122.07
2022-08-22T08:37:24.491Z,122.70
2022-08-22T08:42:56.502Z,123.06
2022-08-22T08:48:28.571Z,122.97
2022-08-22T08:54:00.498Z,124.35
2022-08-22T08:59:32.474Z,125.19
2022-08-22T09:10:36.182Z,122.43
2022-08-22T09:16:08.177Z,121.90
2022-08-22T09:21:40.370Z,120.92
2022-08-22T09:23:53.441Z,124.81
2022-08-22T09:29:23.204Z,125.94
2022-08-22T09:34:54.854Z,125.38
2022-08-22T09:45:58.483Z,122.88
2022-08-22T09:51:32.014Z,124.81
2022-08-22T10:02:34.537Z,128.66
2022-08-22T10:08:06.447Z,129.36
2022-08-22T10:13:38.394Z,128.86
2022-08-22T10:19:10.416Z,131.09
2022-08-22T10:24:44.141Z,132.76
2022-08-22T10:30:16.366Z,132.02
2022-08-22T10:35:45.876Z,133.07
2022-08-22T10:41:17.354Z,133.29
2022-08-22T10:46:49.509Z,132.23
2022-08-22T10:52:21.207Z,134.04
2022-08-22T11:03:23.549Z,135.12
2022-08-22T11:08:54.794Z,134.79
2022-08-22T11:19:58.545Z,137.12
2022-08-22T11:25:38.465Z,136.56
2022-08-22T11:31:01.859Z,136.56
2022-08-22T11:36:33.646Z,136.56
2022-08-22T11:42:05.812Z,137.35
2022-08-22T11:47:37.527Z,138.49
2022-08-22T11:53:09.390Z,137.12
2022-08-22T11:58:41.037Z,137.23
2022-08-22T12:04:12.933Z,137.91
2022-08-22T12:09:44.689Z,138.14
2022-08-22T12:23:08.330Z,148.46
2022-08-22T12:28:39.973Z,150.74
2022-08-22T12:34:11.696Z,152.68
2022-08-22T12:39:43.713Z,155.52
2022-08-22T12:45:15.385Z,156.10
2022-08-22T12:50:47.402Z,154.80
2022-08-22T13:01:48.846Z,151.57
2022-08-22T13:07:22.797Z,151.29
2022-08-22T13:12:52.904Z,153.24
2022-08-22T13:18:29.783Z,151.84
2022-08-22T13:26:31.796Z,155.09
2022-08-22T13:31:47.795Z,159.84
2022-08-22T13:42:49.460Z,157.58
2022-08-22T13:48:21.359Z,157.28
2022-08-22T13:56:15.494Z,158.93
2022-08-22T14:01:45.774Z,161.08
2022-08-22T14:07:17.469Z,160.15
2022-08-22T14:12:50.936Z,158.63
2022-08-22T14:18:21.267Z,154.66
2022-08-22T14:23:53.105Z,153.80
2022-08-22T14:29:24.974Z,152.40
2022-08-22T14:34:58.888Z,151.84
2022-08-22T14:40:28.699Z,151.29
2022-08-22T14:46:02.197Z,152.54
2022-08-22T14:51:32.405Z,153.94
2022-08-22T14:57:04.634Z,155.09
2022-08-22T15:02:36.658Z,155.81
2022-08-22T15:08:08.849Z,156.99
2022-08-22T15:13:40.703Z,159.69
2022-08-22T15:24:42.769Z,160.15
2022-08-22T15:30:18.806Z,160.61
2022-08-22T15:35:45.516Z,159.99
2022-08-22T15:41:17.507Z,160.61
2022-08-22T15:52:18.870Z,157.88
2022-08-22T15:57:50.940Z,158.03
2022-08-22T16:03:24.364Z,156.84
2022-08-22T16:08:56.315Z,156.40
2022-08-22T16:14:29.661Z,154.94
2022-08-22T16:20:00.407Z,156.84
2022-08-22T16:25:32.134Z,157.43
2022-08-22T16:31:03.583Z,159.38
2022-08-22T16:36:35.811Z,161.23
2022-08-22T16:42:07.416Z,162.96
2022-08-22T16:47:39.437Z,165.71
2022-08-22T16:53:11.089Z,167.38
2022-08-22T16:58:56.958Z,168.56
2022-08-22T17:04:14.970Z,170.11
2022-08-22T17:09:47.247Z,172.39
2022-08-22T17:15:19.403Z,175.10
2022-08-22T17:20:51.058Z,175.29
2022-08-22T17:26:23.218Z,177.34
2022-08-22T17:31:55.338Z,178.67
2022-08-22T17:37:26.924Z,179.43
2022-08-22T17:42:58.816Z,180.60
2022-08-22T17:48:30.656Z,181.58
2022-08-22T17:54:02.440Z,182.38
2022-08-22T17:59:33.830Z,182.98
2022-08-22T18:05:05.301Z,185.01
2022-08-22T18:10:37.185Z,184.60
2022-08-22T18:16:08.649Z,185.31
2022-08-22T18:21:40.556Z,186.24
2022-08-22T18:27:29.686Z,185.62
2022-08-22T18:32:43.986Z,186.47
2022-08-22T18:38:19.768Z,186.79
2022-08-22T18:43:47.719Z,187.10
2022-08-22T18:51:40.784Z,191.36
2022-08-22T18:57:12.556Z,193.96
2022-08-22T19:02:47.055Z,192.15
2022-08-22T19:08:15.622Z,193.85
2022-08-22T19:13:47.139Z,192.26
2022-08-22T19:19:18.889Z,193.62
2022-08-22T19:24:50.162Z,192.60
2022-08-22T19:30:21.640Z,194.77
2022-08-22T19:35:53.617Z,198.42
2022-08-22T19:41:25.693Z,196.28
2022-08-22T19:46:56.859Z,199.75
2022-08-22T19:52:28.236Z,199.51
2022-08-22T19:57:59.483Z,200.97
2022-08-22T20:03:30.877Z,201.84
2022-08-22T20:09:02.473Z,202.46
2022-08-22T20:14:34.290Z,202.58
2022-08-22T20:20:27.943Z,202.96
2022-08-22T20:25:42.730Z,205.76
2022-08-22T20:31:09.643Z,206.54
2022-08-22T20:36:41.079Z,207.19
2022-08-22T20:42:12.550Z,208.77
2022-08-22T20:47:48.923Z,210.51
2022-08-22T20:53:15.898Z,212.70
2022-08-22T20:58:47.233Z,212.01
2022-08-22T21:04:19.008Z,215.63
2022-08-22T21:09:50.509Z,214.08
2022-08-22T21:15:22.558Z,214.36
2022-08-22T21:20:54.312Z,214.36
2022-08-22T21:26:26.343Z,216.63
2022-08-22T21:31:59.214Z,221.15
2022-08-22T21:37:29.828Z,222.81
2022-08-22T21:43:01.716Z,218.94
2022-08-22T21:48:33.757Z,222.65
2022-08-22T21:54:17.687Z,221.01
2022-08-22T21:59:58.737Z,222.35
2022-08-22T22:05:12.400Z,223.26
2022-08-22T22:10:44.015Z,224.48
2022-08-22T22:16:16.262Z,225.72
2022-08-22T22:21:48.573Z,226.65
2022-08-22T22:27:20.549Z,226.81
2022-08-22T22:32:52.494Z,227.60
2022-08-22T22:38:24.371Z,230.15
2022-08-22T22:43:56.388Z,230.64
2022-08-22T22:49:28.197Z,231.61
2022-08-22T23:00:31.803Z,230.96
2022-08-22T23:06:03.566Z,229.99
2022-08-22T23:11:35.487Z,229.03
2022-08-22T23:22:39.009Z,233.43
2022-08-22T23:28:10.820Z,234.26
2022-08-22T23:33:42.494Z,234.93
2022-08-22T23:44:46.874Z,236.28
2022-08-22T23:55:50.310Z,235.77
